sensor_id;sensor_type;location;lat;lon;timestamp;temperature;humidity
75899;DHT22;64576;50.460;4.866;2023-02-01T00:01:44;5.93;97.53
75899;DHT22;64576;50.460;4.866;2023-02-01T00:04:10;5.94;97.47
75899;DHT22;64576;50.460;4.866;2023-02-01T00:06:36;5.93;97.54
75899;DHT22;64576;50.460;4.866;2023-02-01T00:09:02;5.93;97.62
75899;DHT22;64576;50.460;4.866;2023-02-01T00:11:27;5.93;97.68
75899;DHT22;64576;50.460;4.866;2023-02-01T00:13:53;5.97;97.65
75899;DHT22;64576;50.460;4.866;2023-02-01T00:16:20;5.96;97.54
75899;DHT22;64576;50.460;4.866;2023-02-01T00:18:48;5.99;97.64
75899;DHT22;64576;50.460;4.866;2023-02-01T00:21:15;5.97;97.63
75899;DHT22;64576;50.460;4.866;2023-02-01T00:23:41;6.00;97.58
75899;DHT22;64576;50.460;4.866;2023-02-01T00:26:11;6.01;97.55
75899;DHT22;64576;50.460;4.866;2023-02-01T00:28:38;6.01;97.65
75899;DHT22;64576;50.460;4.866;2023-02-01T00:31:04;6.07;97.59
75899;DHT22;64576;50.460;4.866;2023-02-01T00:33:30;6.10;97.62
75899;DHT22;64576;50.460;4.866;2023-02-01T00:36:04;6.09;97.70
75899;DHT22;64576;50.460;4.866;2023-02-01T00:38:30;6.07;97.82
75899;DHT22;64576;50.460;4.866;2023-02-01T00:41:04;6.07;97.87
75899;DHT22;64576;50.460;4.866;2023-02-01T00:43:31;6.06;97.90
75899;DHT22;64576;50.460;4.866;2023-02-01T00:45:57;6.07;97.92
75899;DHT22;64576;50.460;4.866;2023-02-01T00:48:22;6.09;97.92
75899;DHT22;64576;50.460;4.866;2023-02-01T00:50:47;6.06;97.85
75899;DHT22;64576;50.460;4.866;2023-02-01T00:53:14;6.07;97.87
75899;DHT22;64576;50.460;4.866;2023-02-01T00:55:40;6.07;97.78
75899;DHT22;64576;50.460;4.866;2023-02-01T00:58:05;6.06;97.77
75899;DHT22;64576;50.460;4.866;2023-02-01T01:00:34;6.07;97.61
75899;DHT22;64576;50.460;4.866;2023-02-01T01:03:00;6.11;97.41
75899;DHT22;64576;50.460;4.866;2023-02-01T01:05:26;6.04;97.41
75899;DHT22;64576;50.460;4.866;2023-02-01T01:07:55;6.07;97.24
75899;DHT22;64576;50.460;4.866;2023-02-01T01:10:20;6.06;96.94
75899;DHT22;64576;50.460;4.866;2023-02-01T01:12:46;6.07;96.85
75899;DHT22;64576;50.460;4.866;2023-02-01T01:15:11;6.01;96.79
75899;DHT22;64576;50.460;4.866;2023-02-01T01:17:36;6.00;96.42
75899;DHT22;64576;50.460;4.866;2023-02-01T01:20:03;5.99;96.08
75899;DHT22;64576;50.460;4.866;2023-02-01T01:22:29;5.96;95.80
75899;DHT22;64576;50.460;4.866;2023-02-01T01:24:54;5.89;95.66
75899;DHT22;64576;50.460;4.866;2023-02-01T01:27:20;5.87;95.30
75899;DHT22;64576;50.460;4.866;2023-02-01T01:29:49;5.93;94.73
75899;DHT22;64576;50.460;4.866;2023-02-01T01:32:14;5.97;94.39
75899;DHT22;64576;50.460;4.866;2023-02-01T01:34:40;5.96;94.59
75899;DHT22;64576;50.460;4.866;2023-02-01T01:37:05;5.87;95.05
75899;DHT22;64576;50.460;4.866;2023-02-01T01:39:31;5.90;95.02
75899;DHT22;64576;50.460;4.866;2023-02-01T01:41:56;5.82;95.19
75899;DHT22;64576;50.460;4.866;2023-02-01T01:47:29;5.82;94.74
75899;DHT22;64576;50.460;4.866;2023-02-01T01:49:56;5.77;95.10
75899;DHT22;64576;50.460;4.866;2023-02-01T01:52:22;5.77;94.86
75899;DHT22;64576;50.460;4.866;2023-02-01T01:54:50;5.69;95.15
75899;DHT22;64576;50.460;4.866;2023-02-01T01:57:19;5.66;95.21
75899;DHT22;64576;50.460;4.866;2023-02-01T01:59:53;5.72;94.66
75899;DHT22;64576;50.460;4.866;2023-02-01T02:02:19;5.73;94.45
75899;DHT22;64576;50.460;4.866;2023-02-01T02:04:45;5.72;94.00
75899;DHT22;64576;50.460;4.866;2023-02-01T02:07:16;5.76;93.83
75899;DHT22;64576;50.460;4.866;2023-02-01T02:09:42;5.76;93.70
75899;DHT22;64576;50.460;4.866;2023-02-01T02:12:08;5.79;93.64
75899;DHT22;64576;50.460;4.866;2023-02-01T02:14:34;5.76;93.79
75899;DHT22;64576;50.460;4.866;2023-02-01T02:36:12;5.58;93.97
75899;DHT22;64576;50.460;4.866;2023-02-01T02:38:57;5.56;94.05
75899;DHT22;64576;50.460;4.866;2023-02-01T02:44:38;5.55;94.17
75899;DHT22;64576;50.460;4.866;2023-02-01T02:48:17;5.59;94.00
75899;DHT22;64576;50.460;4.866;2023-02-01T02:50:49;5.62;93.58
75899;DHT22;64576;50.460;4.866;2023-02-01T02:53:47;5.60;93.36
75899;DHT22;64576;50.460;4.866;2023-02-01T02:56:32;5.58;93.24
75899;DHT22;64576;50.460;4.866;2023-02-01T02:59:21;5.59;93.01
75899;DHT22;64576;50.460;4.866;2023-02-01T03:02:07;5.46;93.33
75899;DHT22;64576;50.460;4.866;2023-02-01T03:04:55;5.48;93.16
75899;DHT22;64576;50.460;4.866;2023-02-01T03:07:46;5.46;93.31
75899;DHT22;64576;50.460;4.866;2023-02-01T03:10:22;5.48;92.39
75899;DHT22;64576;50.460;4.866;2023-02-01T03:12:49;5.49;92.57
75899;DHT22;64576;50.460;4.866;2023-02-01T03:15:49;5.46;92.46
75899;DHT22;64576;50.460;4.866;2023-02-01T03:18:19;5.48;92.23
75899;DHT22;64576;50.460;4.866;2023-02-01T03:20:50;5.45;92.04
75899;DHT22;64576;50.460;4.866;2023-02-01T03:23:18;5.41;92.04
75899;DHT22;64576;50.460;4.866;2023-02-01T03:25:47;5.41;91.77
75899;DHT22;64576;50.460;4.866;2023-02-01T03:28:15;5.39;92.02
75899;DHT22;64576;50.460;4.866;2023-02-01T03:30:44;5.36;91.96
75899;DHT22;64576;50.460;4.866;2023-02-01T03:33:14;5.38;91.44
75899;DHT22;64576;50.460;4.866;2023-02-01T03:35:58;5.36;91.38
75899;DHT22;64576;50.460;4.866;2023-02-01T03:41:42;5.32;91.19
75899;DHT22;64576;50.460;4.866;2023-02-01T03:44:13;5.27;91.50
75899;DHT22;64576;50.460;4.866;2023-02-01T03:46:45;5.23;91.28
75899;DHT22;64576;50.460;4.866;2023-02-01T03:49:18;5.16;91.43
75899;DHT22;64576;50.460;4.866;2023-02-01T03:51:45;5.04;91.54
75899;DHT22;64576;50.460;4.866;2023-02-01T03:54:13;4.94;91.85
75899;DHT22;64576;50.460;4.866;2023-02-01T03:56:42;4.94;92.05
75899;DHT22;64576;50.460;4.866;2023-02-01T03:59:10;5.01;91.44
75899;DHT22;64576;50.460;4.866;2023-02-01T04:01:37;4.93;91.74
75899;DHT22;64576;50.460;4.866;2023-02-01T04:04:02;4.90;91.51
75899;DHT22;64576;50.460;4.866;2023-02-01T04:06:27;4.81;91.89
75899;DHT22;64576;50.460;4.866;2023-02-01T04:08:53;4.70;92.12
75899;DHT22;64576;50.460;4.866;2023-02-01T04:11:21;4.72;91.90
75899;DHT22;64576;50.460;4.866;2023-02-01T04:13:47;4.75;91.57
75899;DHT22;64576;50.460;4.866;2023-02-01T04:16:12;4.73;91.78
75899;DHT22;64576;50.460;4.866;2023-02-01T04:18:38;4.65;91.85
75899;DHT22;64576;50.460;4.866;2023-02-01T04:21:03;4.70;91.44
75899;DHT22;64576;50.460;4.866;2023-02-01T04:23:29;4.59;91.85
75899;DHT22;64576;50.460;4.866;2023-02-01T04:26:03;4.56;91.85
75899;DHT22;64576;50.460;4.866;2023-02-01T04:28:29;4.61;91.44
75899;DHT22;64576;50.460;4.866;2023-02-01T04:30:55;4.51;91.88
75899;DHT22;64576;50.460;4.866;2023-02-01T04:33:20;4.44;92.07
75899;DHT22;64576;50.460;4.866;2023-02-01T04:35:47;4.37;92.18
75899;DHT22;64576;50.460;4.866;2023-02-01T04:38:12;4.34;92.32
75899;DHT22;64576;50.460;4.866;2023-02-01T04:40:37;4.30;92.32
75899;DHT22;64576;50.460;4.866;2023-02-01T04:43:03;4.34;91.94
75899;DHT22;64576;50.460;4.866;2023-02-01T04:45:29;4.31;92.15
75899;DHT22;64576;50.460;4.866;2023-02-01T04:47:56;4.28;91.94
75899;DHT22;64576;50.460;4.866;2023-02-01T04:50:22;4.25;91.97
75899;DHT22;64576;50.460;4.866;2023-02-01T04:52:49;4.17;92.03
75899;DHT22;64576;50.460;4.866;2023-02-01T04:55:15;4.21;91.87
75899;DHT22;64576;50.460;4.866;2023-02-01T04:57:42;4.15;91.75
75899;DHT22;64576;50.460;4.866;2023-02-01T05:00:08;4.22;91.13
75899;DHT22;64576;50.460;4.866;2023-02-01T05:02:34;4.25;90.87
75899;DHT22;64576;50.460;4.866;2023-02-01T05:05:00;4.24;90.77
75899;DHT22;64576;50.460;4.866;2023-02-01T05:07:28;4.14;90.94
75899;DHT22;64576;50.460;4.866;2023-02-01T05:09:54;4.10;90.79
75899;DHT22;64576;50.460;4.866;2023-02-01T05:12:19;4.25;90.42
75899;DHT22;64576;50.460;4.866;2023-02-01T05:15:04;4.21;90.16
75899;DHT22;64576;50.460;4.866;2023-02-01T05:17:30;4.13;90.54
75899;DHT22;64576;50.460;4.866;2023-02-01T05:19:57;4.13;90.54
75899;DHT22;64576;50.460;4.866;2023-02-01T05:22:23;4.05;90.68
75899;DHT22;64576;50.460;4.866;2023-02-01T05:24:49;4.04;90.70
75899;DHT22;64576;50.460;4.866;2023-02-01T05:27:15;4.05;90.40
75899;DHT22;64576;50.460;4.866;2023-02-01T05:29:40;4.03;90.22
75899;DHT22;64576;50.460;4.866;2023-02-01T05:32:05;4.00;90.31
75899;DHT22;64576;50.460;4.866;2023-02-01T05:34:31;4.01;90.43
75899;DHT22;64576;50.460;4.866;2023-02-01T05:36:57;4.03;90.09
75899;DHT22;64576;50.460;4.866;2023-02-01T05:39:23;4.01;89.99
75899;DHT22;64576;50.460;4.866;2023-02-01T05:41:48;3.93;90.48
75899;DHT22;64576;50.460;4.866;2023-02-01T05:44:13;3.87;90.57
75899;DHT22;64576;50.460;4.866;2023-02-01T05:46:42;3.89;90.82
75899;DHT22;64576;50.460;4.866;2023-02-01T05:49:07;3.83;90.59
75899;DHT22;64576;50.460;4.866;2023-02-01T05:51:33;3.89;90.61
75899;DHT22;64576;50.460;4.866;2023-02-01T05:53:59;3.80;90.75
75899;DHT22;64576;50.460;4.866;2023-02-01T05:56:24;3.72;91.00
75899;DHT22;64576;50.460;4.866;2023-02-01T05:58:49;3.60;91.37
75899;DHT22;64576;50.460;4.866;2023-02-01T06:01:15;3.73;90.75
75899;DHT22;64576;50.460;4.866;2023-02-01T06:03:40;3.66;91.02
75899;DHT22;64576;50.460;4.866;2023-02-01T06:06:05;3.60;91.29
75899;DHT22;64576;50.460;4.866;2023-02-01T06:08:31;3.58;91.27
75899;DHT22;64576;50.460;4.866;2023-02-01T06:11:00;3.51;91.44
75899;DHT22;64576;50.460;4.866;2023-02-01T06:13:26;3.56;91.28
75899;DHT22;64576;50.460;4.866;2023-02-01T06:15:53;3.70;90.69
75899;DHT22;64576;50.460;4.866;2023-02-01T06:18:19;3.65;90.79
75899;DHT22;64576;50.460;4.866;2023-02-01T06:20:44;3.56;91.00
75899;DHT22;64576;50.460;4.866;2023-02-01T06:23:12;3.56;91.10
75899;DHT22;64576;50.460;4.866;2023-02-01T06:25:37;3.52;91.30
75899;DHT22;64576;50.460;4.866;2023-02-01T06:28:02;3.51;91.28
75899;DHT22;64576;50.460;4.866;2023-02-01T06:30:32;3.45;91.33
75899;DHT22;64576;50.460;4.866;2023-02-01T06:32:57;3.38;91.79
75899;DHT22;64576;50.460;4.866;2023-02-01T06:35:22;3.48;91.44
75899;DHT22;64576;50.460;4.866;2023-02-01T06:37:48;3.41;91.69
75899;DHT22;64576;50.460;4.866;2023-02-01T06:40:13;3.48;91.34
75899;DHT22;64576;50.460;4.866;2023-02-01T06:42:39;3.39;91.33
75899;DHT22;64576;50.460;4.866;2023-02-01T06:45:05;3.35;91.57
75899;DHT22;64576;50.460;4.866;2023-02-01T06:47:33;3.43;91.40
75899;DHT22;64576;50.460;4.866;2023-02-01T06:49:58;3.35;91.53
75899;DHT22;64576;50.460;4.866;2023-02-01T06:52:24;3.39;91.53
75899;DHT22;64576;50.460;4.866;2023-02-01T06:54:49;3.42;91.39
75899;DHT22;64576;50.460;4.866;2023-02-01T06:57:14;3.43;91.42
75899;DHT22;64576;50.460;4.866;2023-02-01T06:59:40;3.39;91.62
75899;DHT22;64576;50.460;4.866;2023-02-01T07:02:05;3.45;91.15
75899;DHT22;64576;50.460;4.866;2023-02-01T07:04:30;3.46;91.04
75899;DHT22;64576;50.460;4.866;2023-02-01T07:06:56;3.48;91.00
75899;DHT22;64576;50.460;4.866;2023-02-01T07:09:21;3.43;91.29
75899;DHT22;64576;50.460;4.866;2023-02-01T07:11:47;3.39;91.34
75899;DHT22;64576;50.460;4.866;2023-02-01T07:14:12;3.35;91.47
75899;DHT22;64576;50.460;4.866;2023-02-01T07:16:38;3.28;91.80
75899;DHT22;64576;50.460;4.866;2023-02-01T07:19:03;3.22;91.98
75899;DHT22;64576;50.460;4.866;2023-02-01T07:21:29;3.27;91.96
75899;DHT22;64576;50.460;4.866;2023-02-01T07:23:58;3.31;91.90
75899;DHT22;64576;50.460;4.866;2023-02-01T07:26:23;3.32;91.74
75899;DHT22;64576;50.460;4.866;2023-02-01T07:28:49;3.30;91.82
75899;DHT22;64576;50.460;4.866;2023-02-01T07:31:17;3.41;91.44
75899;DHT22;64576;50.460;4.866;2023-02-01T07:33:47;3.39;91.46
75899;DHT22;64576;50.460;4.866;2023-02-01T07:36:16;3.45;91.24
75899;DHT22;64576;50.460;4.866;2023-02-01T07:38:42;3.55;90.93
75899;DHT22;64576;50.460;4.866;2023-02-01T07:41:08;3.68;90.41
75899;DHT22;64576;50.460;4.866;2023-02-01T07:43:34;3.73;90.12
75899;DHT22;64576;50.460;4.866;2023-02-01T07:46:00;3.85;89.61
75899;DHT22;64576;50.460;4.866;2023-02-01T07:48:28;3.97;89.30
75899;DHT22;64576;50.460;4.866;2023-02-01T07:51:05;4.05;88.85
75899;DHT22;64576;50.460;4.866;2023-02-01T07:53:32;4.18;88.34
75899;DHT22;64576;50.460;4.866;2023-02-01T07:55:58;4.22;88.16
75899;DHT22;64576;50.460;4.866;2023-02-01T07:58:24;4.37;87.62
75899;DHT22;64576;50.460;4.866;2023-02-01T08:00:49;4.44;87.34
75899;DHT22;64576;50.460;4.866;2023-02-01T08:03:33;4.61;86.95
75899;DHT22;64576;50.460;4.866;2023-02-01T08:05:59;4.56;86.73
75899;DHT22;64576;50.460;4.866;2023-02-01T08:08:24;4.62;86.74
75899;DHT22;64576;50.460;4.866;2023-02-01T08:10:50;4.66;86.55
75899;DHT22;64576;50.460;4.866;2023-02-01T08:13:16;4.91;85.85
75899;DHT22;64576;50.460;4.866;2023-02-01T08:15:41;5.01;85.76
75899;DHT22;64576;50.460;4.866;2023-02-01T08:18:06;5.11;85.36
75899;DHT22;64576;50.460;4.866;2023-02-01T08:20:33;5.23;84.77
75899;DHT22;64576;50.460;4.866;2023-02-01T08:23:01;5.30;84.61
75899;DHT22;64576;50.460;4.866;2023-02-01T08:25:26;5.27;84.79
75899;DHT22;64576;50.460;4.866;2023-02-01T08:27:53;5.52;83.86
75899;DHT22;64576;50.460;4.866;2023-02-01T08:30:20;5.69;83.17
75899;DHT22;64576;50.460;4.866;2023-02-01T08:32:45;5.66;83.60
75899;DHT22;64576;50.460;4.866;2023-02-01T08:35:11;5.59;83.06
75899;DHT22;64576;50.460;4.866;2023-02-01T08:37:36;5.89;82.38
75899;DHT22;64576;50.460;4.866;2023-02-01T08:40:03;5.74;82.81
75899;DHT22;64576;50.460;4.866;2023-02-01T08:42:28;5.76;82.85
75899;DHT22;64576;50.460;4.866;2023-02-01T08:45:12;6.06;82.18
75899;DHT22;64576;50.460;4.866;2023-02-01T08:47:38;5.86;83.02
75899;DHT22;64576;50.460;4.866;2023-02-01T08:50:04;5.17;84.87
75899;DHT22;64576;50.460;4.866;2023-02-01T08:52:29;5.13;85.97
75899;DHT22;64576;50.460;4.866;2023-02-01T08:54:55;5.10;86.26
75899;DHT22;64576;50.460;4.866;2023-02-01T08:57:20;4.97;86.55
75899;DHT22;64576;50.460;4.866;2023-02-01T08:59:46;4.97;86.46
75899;DHT22;64576;50.460;4.866;2023-02-01T09:02:16;5.01;86.65
75899;DHT22;64576;50.460;4.866;2023-02-01T09:04:43;5.08;85.92
75899;DHT22;64576;50.460;4.866;2023-02-01T09:07:09;5.34;85.02
75899;DHT22;64576;50.460;4.866;2023-02-01T09:09:36;5.66;84.24
75899;DHT22;64576;50.460;4.866;2023-02-01T09:12:03;5.51;84.88
75899;DHT22;64576;50.460;4.866;2023-02-01T09:14:28;5.44;84.76
75899;DHT22;64576;50.460;4.866;2023-02-01T09:16:54;5.49;85.13
75899;DHT22;64576;50.460;4.866;2023-02-01T09:19:19;5.30;85.16
75899;DHT22;64576;50.460;4.866;2023-02-01T09:21:45;5.41;84.90
75899;DHT22;64576;50.460;4.866;2023-02-01T09:24:10;5.82;84.12
75899;DHT22;64576;50.460;4.866;2023-02-01T09:26:36;5.67;83.72
75899;DHT22;64576;50.460;4.866;2023-02-01T09:29:02;5.82;83.95
75899;DHT22;64576;50.460;4.866;2023-02-01T09:31:29;5.73;83.90
75899;DHT22;64576;50.460;4.866;2023-02-01T09:33:54;6.76;80.31
75899;DHT22;64576;50.460;4.866;2023-02-01T09:36:20;6.41;80.84
75899;DHT22;64576;50.460;4.866;2023-02-01T09:38:45;6.09;82.16
75899;DHT22;64576;50.460;4.866;2023-02-01T09:46:42;6.00;82.73
75899;DHT22;64576;50.460;4.866;2023-02-01T09:49:22;5.94;82.74
75899;DHT22;64576;50.460;4.866;2023-02-01T09:51:51;6.77;80.25
75899;DHT22;64576;50.460;4.866;2023-02-01T09:54:42;7.44;77.40
75899;DHT22;64576;50.460;4.866;2023-02-01T09:57:15;7.93;75.27
75899;DHT22;64576;50.460;4.866;2023-02-01T09:59:44;7.80;75.70
75899;DHT22;64576;50.460;4.866;2023-02-01T10:02:24;7.63;76.34
75899;DHT22;64576;50.460;4.866;2023-02-01T10:04:50;7.28;77.33
75899;DHT22;64576;50.460;4.866;2023-02-01T10:07:48;7.59;75.78
75899;DHT22;64576;50.460;4.866;2023-02-01T10:10:27;6.62;78.97
75899;DHT22;64576;50.460;4.866;2023-02-01T10:13:03;6.41;80.12
75899;DHT22;64576;50.460;4.866;2023-02-01T10:15:51;6.61;79.49
75899;DHT22;64576;50.460;4.866;2023-02-01T10:18:30;6.27;79.69
75899;DHT22;64576;50.460;4.866;2023-02-01T10:23:50;6.22;80.37
75899;DHT22;64576;50.460;4.866;2023-02-01T10:26:26;6.41;79.72
75899;DHT22;64576;50.460;4.866;2023-02-01T10:29:00;7.27;76.98
75899;DHT22;64576;50.460;4.866;2023-02-01T10:31:28;8.90;71.07
75899;DHT22;64576;50.460;4.866;2023-02-01T10:34:14;9.09;69.82
75899;DHT22;64576;50.460;4.866;2023-02-01T10:37:08;9.26;69.53
75899;DHT22;64576;50.460;4.866;2023-02-01T10:39:35;10.06;67.14
75899;DHT22;64576;50.460;4.866;2023-02-01T10:42:02;9.41;67.52
75899;DHT22;64576;50.460;4.866;2023-02-01T10:44:30;9.68;67.20
75899;DHT22;64576;50.460;4.866;2023-02-01T10:46:55;9.48;67.45
75899;DHT22;64576;50.460;4.866;2023-02-01T10:49:26;9.85;66.47
75899;DHT22;64576;50.460;4.866;2023-02-01T10:52:20;11.09;63.29
75899;DHT22;64576;50.460;4.866;2023-02-01T10:54:47;10.59;64.22
75899;DHT22;64576;50.460;4.866;2023-02-01T10:57:24;9.96;64.37
75899;DHT22;64576;50.460;4.866;2023-02-01T10:59:51;10.13;65.11
75899;DHT22;64576;50.460;4.866;2023-02-01T11:02:31;9.92;64.49
75899;DHT22;64576;50.460;4.866;2023-02-01T11:05:08;10.03;65.19
75899;DHT22;64576;50.460;4.866;2023-02-01T11:07:36;9.24;66.57
75899;DHT22;64576;50.460;4.866;2023-02-01T11:10:03;9.26;67.50
75899;DHT22;64576;50.460;4.866;2023-02-01T11:12:34;10.07;64.64
75899;DHT22;64576;50.460;4.866;2023-02-01T11:15:20;10.18;65.04
75899;DHT22;64576;50.460;4.866;2023-02-01T11:17:48;9.99;64.92
75899;DHT22;64576;50.460;4.866;2023-02-01T11:20:19;9.30;66.99
75899;DHT22;64576;50.460;4.866;2023-02-01T11:23:02;9.69;66.25
75899;DHT22;64576;50.460;4.866;2023-02-01T11:25:28;10.24;64.96
75899;DHT22;64576;50.460;4.866;2023-02-01T11:27:55;9.09;66.26
75899;DHT22;64576;50.460;4.866;2023-02-01T11:30:42;9.30;67.61
75899;DHT22;64576;50.460;4.866;2023-02-01T11:33:15;10.02;65.98
75899;DHT22;64576;50.460;4.866;2023-02-01T11:35:42;9.10;67.38
75899;DHT22;64576;50.460;4.866;2023-02-01T11:38:29;8.89;68.16
75899;DHT22;64576;50.460;4.866;2023-02-01T11:40:55;8.87;66.60
75899;DHT22;64576;50.460;4.866;2023-02-01T11:43:27;8.20;69.12
75899;DHT22;64576;50.460;4.866;2023-02-01T11:46:01;8.20;69.30
75899;DHT22;64576;50.460;4.866;2023-02-01T11:48:30;8.75;67.70
75899;DHT22;64576;50.460;4.866;2023-02-01T11:51:18;8.33;68.34
75899;DHT22;64576;50.460;4.866;2023-02-01T12:00:09;9.59;66.52
75899;DHT22;64576;50.460;4.866;2023-02-01T12:03:27;9.82;65.75
75899;DHT22;64576;50.460;4.866;2023-02-01T12:05:50;9.00;67.85
75899;DHT22;64576;50.460;4.866;2023-02-01T12:11:35;9.90;64.66
75899;DHT22;64576;50.460;4.866;2023-02-01T12:16:55;9.44;66.29
75899;DHT22;64576;50.460;4.866;2023-02-01T12:22:25;10.54;62.65
75899;DHT22;64576;50.460;4.866;2023-02-01T12:28:22;8.54;68.25
75899;DHT22;64576;50.460;4.866;2023-02-01T12:34:18;8.48;68.81
75899;DHT22;64576;50.460;4.866;2023-02-01T12:39:39;9.34;67.17
75899;DHT22;64576;50.460;4.866;2023-02-01T12:42:20;8.62;69.36
75899;DHT22;64576;50.460;4.866;2023-02-01T12:44:54;9.56;66.59
75899;DHT22;64576;50.460;4.866;2023-02-01T12:47:29;8.45;70.33
75899;DHT22;64576;50.460;4.866;2023-02-01T12:50:05;8.72;69.36
75899;DHT22;64576;50.460;4.866;2023-02-01T12:52:42;8.20;71.08
75899;DHT22;64576;50.460;4.866;2023-02-01T12:57:54;8.06;71.00
75899;DHT22;64576;50.460;4.866;2023-02-01T13:00:43;8.49;68.56
75899;DHT22;64576;50.460;4.866;2023-02-01T13:03:43;8.63;68.79
75899;DHT22;64576;50.460;4.866;2023-02-01T13:06:13;8.52;68.27
75899;DHT22;64576;50.460;4.866;2023-02-01T13:09:19;8.42;69.51
75899;DHT22;64576;50.460;4.866;2023-02-01T13:11:49;10.78;62.67
75899;DHT22;64576;50.460;4.866;2023-02-01T13:14:33;11.35;61.12
75899;DHT22;64576;50.460;4.866;2023-02-01T13:17:03;11.64;60.72
75899;DHT22;64576;50.460;4.866;2023-02-01T13:19:42;11.12;61.19
75899;DHT22;64576;50.460;4.866;2023-02-01T13:22:31;10.59;62.02
75899;DHT22;64576;50.460;4.866;2023-02-01T13:25:11;11.61;59.99
75899;DHT22;64576;50.460;4.866;2023-02-01T13:27:38;11.58;60.44
75899;DHT22;64576;50.460;4.866;2023-02-01T13:33:08;10.79;62.44
75899;DHT22;64576;50.460;4.866;2023-02-01T13:41:07;11.55;58.95
75899;DHT22;64576;50.460;4.866;2023-02-01T13:43:39;11.20;59.33
75899;DHT22;64576;50.460;4.866;2023-02-01T13:46:08;10.71;60.45
75899;DHT22;64576;50.460;4.866;2023-02-01T13:48:53;10.06;64.34
75899;DHT22;64576;50.460;4.866;2023-02-01T13:51:35;9.48;66.18
75899;DHT22;64576;50.460;4.866;2023-02-01T13:54:01;9.37;67.63
75899;DHT22;64576;50.460;4.866;2023-02-01T13:56:39;8.80;68.77
75899;DHT22;64576;50.460;4.866;2023-02-01T14:05:12;8.63;69.73
75899;DHT22;64576;50.460;4.866;2023-02-01T14:10:54;8.83;69.38
75899;DHT22;64576;50.460;4.866;2023-02-01T14:13:40;8.73;69.48
75899;DHT22;64576;50.460;4.866;2023-02-01T14:26:45;9.01;69.42
75899;DHT22;64576;50.460;4.866;2023-02-01T14:32:05;9.11;69.44
75899;DHT22;64576;50.460;4.866;2023-02-01T14:47:43;8.06;72.68
75899;DHT22;64576;50.460;4.866;2023-02-01T14:55:44;7.97;73.17
75899;DHT22;64576;50.460;4.866;2023-02-01T15:06:43;7.93;73.85
75899;DHT22;64576;50.460;4.866;2023-02-01T15:09:28;7.97;73.87
75899;DHT22;64576;50.460;4.866;2023-02-01T15:14:27;8.08;73.12
75899;DHT22;64576;50.460;4.866;2023-02-01T15:16:53;8.21;72.74
75899;DHT22;64576;50.460;4.866;2023-02-01T15:19:21;8.13;73.03
75899;DHT22;64576;50.460;4.866;2023-02-01T15:21:50;8.10;73.21
75899;DHT22;64576;50.460;4.866;2023-02-01T15:24:28;8.03;73.21
75899;DHT22;64576;50.460;4.866;2023-02-01T15:26:56;8.00;73.68
75899;DHT22;64576;50.460;4.866;2023-02-01T15:29:27;7.97;72.90
75899;DHT22;64576;50.460;4.866;2023-02-01T15:31:57;7.94;72.82
75899;DHT22;64576;50.460;4.866;2023-02-01T15:34:23;7.93;73.25
75899;DHT22;64576;50.460;4.866;2023-02-01T15:36:48;7.94;73.39
75899;DHT22;64576;50.460;4.866;2023-02-01T15:39:23;7.90;73.39
75899;DHT22;64576;50.460;4.866;2023-02-01T15:42:08;7.83;73.83
75899;DHT22;64576;50.460;4.866;2023-02-01T15:44:42;7.79;72.75
75899;DHT22;64576;50.460;4.866;2023-02-01T15:47:24;7.79;73.03
75899;DHT22;64576;50.460;4.866;2023-02-01T15:49:52;7.78;72.85
75899;DHT22;64576;50.460;4.866;2023-02-01T15:52:36;7.76;72.85
75899;DHT22;64576;50.460;4.866;2023-02-01T15:55:17;7.73;72.76
75899;DHT22;64576;50.460;4.866;2023-02-01T15:57:44;7.69;73.39
75899;DHT22;64576;50.460;4.866;2023-02-01T16:00:27;7.66;73.27
75899;DHT22;64576;50.460;4.866;2023-02-01T16:03:02;7.68;73.23
75899;DHT22;64576;50.460;4.866;2023-02-01T16:05:35;7.65;73.79
75899;DHT22;64576;50.460;4.866;2023-02-01T16:08:19;7.62;73.96
75899;DHT22;64576;50.460;4.866;2023-02-01T16:10:48;7.56;74.22
75899;DHT22;64576;50.460;4.866;2023-02-01T16:13:16;7.59;74.17
75899;DHT22;64576;50.460;4.866;2023-02-01T16:15:43;7.59;74.58
75899;DHT22;64576;50.460;4.866;2023-02-01T16:18:10;7.61;74.58
75899;DHT22;64576;50.460;4.866;2023-02-01T16:20:38;7.56;74.99
75899;DHT22;64576;50.460;4.866;2023-02-01T16:23:04;7.56;74.87
75899;DHT22;64576;50.460;4.866;2023-02-01T16:25:30;7.55;75.05
75899;DHT22;64576;50.460;4.866;2023-02-01T16:27:55;7.52;75.21
75899;DHT22;64576;50.460;4.866;2023-02-01T16:30:21;7.54;75.10
75899;DHT22;64576;50.460;4.866;2023-02-01T16:32:53;7.55;75.21
75899;DHT22;64576;50.460;4.866;2023-02-01T16:37:48;7.51;75.72
75899;DHT22;64576;50.460;4.866;2023-02-01T16:40:17;7.48;75.86
75899;DHT22;64576;50.460;4.866;2023-02-01T16:42:45;7.42;76.17
75899;DHT22;64576;50.460;4.866;2023-02-01T16:45:17;7.42;76.18
75899;DHT22;64576;50.460;4.866;2023-02-01T16:47:47;7.42;76.44
75899;DHT22;64576;50.460;4.866;2023-02-01T16:50:18;7.47;76.21
75899;DHT22;64576;50.460;4.866;2023-02-01T16:52:45;7.44;76.51
75899;DHT22;64576;50.460;4.866;2023-02-01T16:55:13;7.44;76.45
75899;DHT22;64576;50.460;4.866;2023-02-01T16:57:39;7.40;76.62
75899;DHT22;64576;50.460;4.866;2023-02-01T17:00:06;7.41;76.67
75899;DHT22;64576;50.460;4.866;2023-02-01T17:02:31;7.38;77.05
75899;DHT22;64576;50.460;4.866;2023-02-01T17:04:57;7.36;77.27
75899;DHT22;64576;50.460;4.866;2023-02-01T17:07:22;7.36;77.26
75899;DHT22;64576;50.460;4.866;2023-02-01T17:09:48;7.34;77.36
75899;DHT22;64576;50.460;4.866;2023-02-01T17:12:31;7.32;77.55
75899;DHT22;64576;50.460;4.866;2023-02-01T17:14:58;7.34;77.71
75899;DHT22;64576;50.460;4.866;2023-02-01T17:17:30;7.28;77.95
75899;DHT22;64576;50.460;4.866;2023-02-01T17:19:58;7.28;77.97
75899;DHT22;64576;50.460;4.866;2023-02-01T17:22:23;7.31;78.06
75899;DHT22;64576;50.460;4.866;2023-02-01T17:24:49;7.27;78.33
75899;DHT22;64576;50.460;4.866;2023-02-01T17:27:16;7.21;78.73
75899;DHT22;64576;50.460;4.866;2023-02-01T17:29:41;7.18;79.04
75899;DHT22;64576;50.460;4.866;2023-02-01T17:32:17;7.18;79.02
75899;DHT22;64576;50.460;4.866;2023-02-01T17:34:43;7.15;79.65
75899;DHT22;64576;50.460;4.866;2023-02-01T17:39:51;7.13;79.69
75899;DHT22;64576;50.460;4.866;2023-02-01T17:42:21;7.04;80.44
75899;DHT22;64576;50.460;4.866;2023-02-01T17:44:46;7.00;80.36
75899;DHT22;64576;50.460;4.866;2023-02-01T17:47:12;6.94;81.09
75899;DHT22;64576;50.460;4.866;2023-02-01T17:49:37;6.97;80.81
75899;DHT22;64576;50.460;4.866;2023-02-01T17:52:04;6.89;81.76
75899;DHT22;64576;50.460;4.866;2023-02-01T17:54:29;6.85;82.27
75899;DHT22;64576;50.460;4.866;2023-02-01T17:56:55;6.83;82.12
75899;DHT22;64576;50.460;4.866;2023-02-01T17:59:24;6.79;82.71
75899;DHT22;64576;50.460;4.866;2023-02-01T18:01:50;6.73;83.05
75899;DHT22;64576;50.460;4.866;2023-02-01T18:04:17;6.71;83.40
75899;DHT22;64576;50.460;4.866;2023-02-01T18:06:43;6.72;83.00
75899;DHT22;64576;50.460;4.866;2023-02-01T18:09:09;6.66;84.00
75899;DHT22;64576;50.460;4.866;2023-02-01T18:11:34;6.66;83.99
75899;DHT22;64576;50.460;4.866;2023-02-01T18:14:00;6.56;84.50